Погода Гоятубана 2 недели

Гояс, Бразилия

21 июля-03 августа
  • 21июля
    Сегодня
    +16°
    +29°
    Ясно и безоблачно
    ВремяПогодаТемператураВлажностьДавлениеВетер, м/сВероятность осадков
    00:00Ясно и безоблачно+20°C41 %707 мм2.8 м/с5 %
    03:00Ясно и безоблачно+17°C52 %706 мм2.5 м/с5 %
    06:00Ясно и безоблачно+16°C55 %706 мм2.4 м/с5 %
    09:00Ясно и безоблачно+21°C42 %708 мм2.6 м/с5 %
    12:00Ясно и безоблачно+26°C32 %708 мм3.8 м/с5 %
    15:00Ясно и безоблачно+28°C29 %707 мм2.3 м/с5 %
    18:00Ясно и безоблачно+24°C43 %706 мм2.2 м/с5 %
    21:00Ясно и безоблачно+21°C49 %707 мм2.2 м/с5 %
  • 22июля
    Понедельник
    +16°
    +30°
    Ясно и безоблачно
    ВремяПогодаТемператураВлажностьДавлениеВетер, м/сВероятность осадков
    00:00Ясно и безоблачно+21°C42 %707 мм3.1 м/с5 %
    03:00Ясно и безоблачно+18°C51 %706 мм2.5 м/с5 %
    06:00Ясно и безоблачно+17°C54 %706 мм2.0 м/с5 %
    09:00Ясно и безоблачно+22°C41 %709 мм2.6 м/с5 %
    12:00Ясно и безоблачно+26°C29 %709 мм2.9 м/с5 %
    15:00Ясно и безоблачно+29°C26 %707 мм1.8 м/с5 %
    18:00Ясно и безоблачно+26°C35 %707 мм2.8 м/с5 %
    21:00Ясно и безоблачно+22°C41 %707 мм2.4 м/с5 %
  • 23июля
    Вторник
    +18°
    +30°
    Ясно и безоблачно
    ВремяПогодаТемператураВлажностьДавлениеВетер, м/сВероятность осадков
    00:00Ясно и безоблачно+21°C44 %707 мм2.8 м/с5 %
    03:00Ясно и безоблачно+19°C54 %706 мм2.2 м/с5 %
    06:00Ясно и безоблачно+17°C57 %706 мм1.9 м/с5 %
    09:00Ясно и безоблачно+23°C44 %709 мм1.7 м/с5 %
    12:00Ясно и безоблачно+27°C32 %709 мм3.5 м/с5 %
    15:00Ясно и безоблачно+29°C29 %707 мм2.5 м/с5 %
    18:00Ясно и безоблачно+26°C39 %706 мм1.9 м/с5 %
    21:00Ясно и безоблачно+22°C47 %707 мм2.5 м/с5 %
  • 24июля
    Среда
    +17°
    +31°
    Ясно и безоблачно
    ВремяПогодаТемператураВлажностьДавлениеВетер, м/сВероятность осадков
    00:00Ясно и безоблачно+22°C38 %707 мм3.5 м/с5 %
    03:00Ясно и безоблачно+20°C42 %706 мм3.1 м/с5 %
    06:00Ясно и безоблачно+18°C46 %706 мм3.6 м/с5 %
    09:00Ясно и безоблачно+22°C39 %709 мм4.4 м/с5 %
    12:00Ясно и безоблачно+27°C24 %709 мм4.0 м/с5 %
    15:00Ясно и безоблачно+30°C22 %707 мм1.5 м/с5 %
    18:00Ясно и безоблачно+27°C30 %707 мм1.5 м/с5 %
    21:00Ясно и безоблачно+22°C36 %707 мм1.9 м/с5 %
  • 25июля
    Четверг
    +17°
    +30°
    Ясно и безоблачно
    ВремяПогодаТемператураВлажностьДавлениеВетер, м/сВероятность осадков
    00:00Ясно и безоблачно+22°C39 %708 мм4.4 м/с5 %
    03:00Ясно и безоблачно+20°C46 %706 мм3.1 м/с5 %
    06:00Ясно и безоблачно+18°C51 %706 мм2.8 м/с5 %
    09:00Ясно и безоблачно+23°C38 %709 мм2.6 м/с5 %
    12:00Ясно и безоблачно+27°C24 %708 мм1.7 м/с5 %
    15:00Ясно и безоблачно+30°C23 %706 мм0.7 м/с5 %
    18:00Ясно и безоблачно+26°C34 %706 мм1.8 м/с5 %
    21:00Ясно и безоблачно+22°C36 %706 мм1.8 м/с5 %
Мы используем cookies
Соглашаюсь